createdAt,value
2019-04-28T00:00:26.209Z,1006.64
2019-04-28T00:01:26.199Z,1006.58
2019-04-28T00:02:26.195Z,1006.62
2019-04-28T00:03:26.176Z,1006.61
2019-04-28T00:04:26.168Z,1006.64
2019-04-28T00:05:26.165Z,1006.72
2019-04-28T00:06:26.163Z,1006.66
2019-04-28T00:07:26.133Z,1006.63
2019-04-28T00:08:26.121Z,1006.61
2019-04-28T00:09:26.122Z,1006.60
2019-04-28T00:10:26.102Z,1006.67
2019-04-28T00:11:26.086Z,1006.73
2019-04-28T00:12:26.079Z,1006.68
2019-04-28T00:13:26.071Z,1006.74
2019-04-28T00:14:26.055Z,1006.74
2019-04-28T00:15:26.050Z,1006.75
2019-04-28T00:16:26.032Z,1006.72
2019-04-28T00:17:26.025Z,1006.79
2019-04-28T00:18:26.019Z,1006.82
2019-04-28T00:19:25.999Z,1006.80
2019-04-28T00:20:25.994Z,1006.76
2019-04-28T00:21:25.978Z,1006.88
2019-04-28T00:22:25.966Z,1006.87
2019-04-28T00:23:25.956Z,1006.98
2019-04-28T00:24:25.962Z,1006.99
2019-04-28T00:25:25.936Z,1006.82
2019-04-28T00:26:25.942Z,1006.87
2019-04-28T00:27:25.912Z,1006.84
2019-04-28T00:28:25.908Z,1006.88
2019-04-28T00:29:37.606Z,1006.89
2019-04-28T00:30:26.876Z,1006.85
2019-04-28T00:31:25.873Z,1006.83
2019-04-28T00:32:25.866Z,1006.78
2019-04-28T00:33:25.846Z,1006.80
2019-04-28T00:34:25.835Z,1006.80
2019-04-28T00:35:25.826Z,1006.83
2019-04-28T00:36:25.810Z,1006.84
2019-04-28T00:37:25.801Z,1006.84
2019-04-28T00:38:25.788Z,1006.81
2019-04-28T00:39:25.777Z,1006.81
2019-04-28T00:40:25.767Z,1006.83
2019-04-28T00:41:25.765Z,1006.79
2019-04-28T00:42:25.743Z,1006.74
2019-04-28T00:43:25.739Z,1006.78
2019-04-28T00:44:25.720Z,1006.79
2019-04-28T00:45:25.713Z,1006.77
2019-04-28T00:46:25.702Z,1006.74
2019-04-28T00:47:25.692Z,1006.78
2019-04-28T00:48:25.678Z,1006.79
2019-04-28T00:49:25.668Z,1006.74
2019-04-28T00:50:25.654Z,1006.74
2019-04-28T00:51:25.642Z,1006.79
2019-04-28T00:52:25.650Z,1006.80
2019-04-28T00:53:25.636Z,1006.80
2019-04-28T00:54:25.632Z,1006.76
2019-04-28T00:55:25.600Z,1006.79
2019-04-28T00:56:25.602Z,1006.85
2019-04-28T00:57:25.577Z,1006.87
2019-04-28T00:58:25.570Z,1006.83
2019-04-28T00:59:25.554Z,1006.90
2019-04-28T01:00:25.543Z,1006.86
2019-04-28T01:01:25.532Z,1006.89
2019-04-28T01:02:25.538Z,1006.90
2019-04-28T01:03:25.517Z,1006.93
2019-04-28T01:04:25.512Z,1006.86
2019-04-28T01:05:25.491Z,1006.92
2019-04-28T01:06:25.476Z,1006.92
2019-04-28T01:07:25.471Z,1006.90
2019-04-28T01:08:25.460Z,1006.94
2019-04-28T01:09:25.448Z,1006.90
2019-04-28T01:10:25.434Z,1006.90
2019-04-28T01:11:25.421Z,1006.94
2019-04-28T01:12:25.410Z,1006.81
2019-04-28T01:13:25.400Z,1006.87
2019-04-28T01:14:25.392Z,1006.91
2019-04-28T01:15:25.380Z,1006.92
2019-04-28T01:16:25.375Z,1007.00
2019-04-28T01:17:25.386Z,1006.97
2019-04-28T01:18:25.344Z,1007.03
2019-04-28T01:19:25.339Z,1006.98
2019-04-28T01:20:25.325Z,1007.00
2019-04-28T01:21:25.307Z,1007.00
2019-04-28T01:22:25.300Z,1007.01
2019-04-28T01:23:25.284Z,1007.07
2019-04-28T01:24:25.273Z,1007.08
2019-04-28T01:25:25.280Z,1007.07
2019-04-28T01:26:25.254Z,1007.09
2019-04-28T01:27:25.240Z,1007.16
2019-04-28T01:28:25.232Z,1007.18
2019-04-28T01:29:25.219Z,1007.13
2019-04-28T01:30:25.209Z,1007.18
2019-04-28T01:31:25.195Z,1007.20
2019-04-28T01:32:25.196Z,1007.18
2019-04-28T01:33:25.172Z,1007.17
2019-04-28T01:34:25.172Z,1007.20
2019-04-28T01:35:25.153Z,1007.18
2019-04-28T01:36:25.143Z,1007.17
2019-04-28T01:37:25.132Z,1007.15
2019-04-28T01:38:25.131Z,1007.09
2019-04-28T01:39:25.109Z,1007.14
2019-04-28T01:40:25.094Z,1007.15
2019-04-28T01:41:25.085Z,1007.11
2019-04-28T01:42:25.073Z,1007.15
2019-04-28T01:43:25.065Z,1007.11
2019-04-28T01:44:25.048Z,1007.13
2019-04-28T01:45:25.039Z,1007.18
2019-04-28T01:46:25.021Z,1007.10
2019-04-28T01:47:25.025Z,1007.22
2019-04-28T01:48:25.011Z,1007.20
2019-04-28T01:49:24.992Z,1007.23
2019-04-28T01:50:24.978Z,1007.27
2019-04-28T01:51:24.966Z,1007.19
2019-04-28T01:52:24.961Z,1007.20
2019-04-28T01:53:24.945Z,1007.29
2019-04-28T01:54:24.941Z,1007.22
2019-04-28T01:55:24.922Z,1007.18
2019-04-28T01:56:24.909Z,1007.22
2019-04-28T01:57:24.901Z,1007.29
2019-04-28T01:58:24.895Z,1007.21
2019-04-28T01:59:24.882Z,1007.26
2019-04-28T02:00:25.564Z,1007.26
2019-04-28T02:01:24.853Z,1007.22
2019-04-28T02:02:24.843Z,1007.32
2019-04-28T02:03:24.832Z,1007.34
2019-04-28T02:04:24.821Z,1007.29
2019-04-28T02:05:24.811Z,1007.23
2019-04-28T02:06:24.795Z,1007.27
2019-04-28T02:07:24.789Z,1007.25
2019-04-28T02:08:24.777Z,1007.20
2019-04-28T02:09:24.770Z,1007.24
2019-04-28T02:10:24.761Z,1007.27
2019-04-28T02:11:24.771Z,1007.30
2019-04-28T02:12:24.737Z,1007.33
2019-04-28T02:13:24.715Z,1007.31
2019-04-28T02:14:24.715Z,1007.35
2019-04-28T02:15:24.693Z,1007.36
2019-04-28T02:16:24.702Z,1007.32
2019-04-28T02:17:24.695Z,1007.40
2019-04-28T02:18:24.671Z,1007.36
2019-04-28T02:19:24.655Z,1007.45
2019-04-28T02:20:24.741Z,1007.36
2019-04-28T02:21:24.634Z,1007.44
2019-04-28T02:22:24.616Z,1007.46
2019-04-28T02:23:24.609Z,1007.43
2019-04-28T02:24:24.597Z,1007.45
2019-04-28T02:25:24.582Z,1007.47
2019-04-28T02:26:24.571Z,1007.43
2019-04-28T02:27:24.575Z,1007.47
2019-04-28T02:28:24.578Z,1007.42
2019-04-28T02:29:24.537Z,1007.40
2019-04-28T02:30:41.108Z,1007.47
2019-04-28T02:31:25.517Z,1007.38
2019-04-28T02:32:24.590Z,1007.40
2019-04-28T02:33:24.500Z,1007.39
2019-04-28T02:34:24.482Z,1007.38
2019-04-28T02:35:24.468Z,1007.42
2019-04-28T02:36:24.458Z,1007.44
2019-04-28T02:37:24.444Z,1007.39
2019-04-28T02:38:24.442Z,1007.39
2019-04-28T02:39:24.423Z,1007.48
2019-04-28T02:40:24.416Z,1007.48
2019-04-28T02:41:24.400Z,1007.57
2019-04-28T02:42:24.391Z,1007.49
2019-04-28T02:43:24.378Z,1007.44
2019-04-28T02:44:24.374Z,1007.52
2019-04-28T02:45:24.355Z,1007.55
2019-04-28T02:46:24.346Z,1007.59
2019-04-28T02:47:24.329Z,1007.54
2019-04-28T02:48:24.324Z,1007.60
2019-04-28T02:49:24.315Z,1007.56
2019-04-28T02:50:24.300Z,1007.61
2019-04-28T02:51:24.295Z,1007.63
2019-04-28T02:52:24.277Z,1007.67
2019-04-28T02:53:24.268Z,1007.65
2019-04-28T02:54:24.263Z,1007.70
2019-04-28T02:55:24.244Z,1007.67
2019-04-28T02:56:24.242Z,1007.74
2019-04-28T02:57:24.221Z,1007.63
2019-04-28T02:58:24.216Z,1007.78
2019-04-28T02:59:24.200Z,1007.74
2019-04-28T03:00:24.193Z,1007.80
2019-04-28T03:01:26.595Z,1007.78
2019-04-28T03:02:24.169Z,1007.79
2019-04-28T03:03:24.162Z,1007.82
2019-04-28T03:04:24.143Z,1007.83
2019-04-28T03:05:24.132Z,1007.82
2019-04-28T03:06:24.117Z,1007.76
2019-04-28T03:07:24.109Z,1007.82
2019-04-28T03:08:24.103Z,1007.72
2019-04-28T03:09:24.084Z,1007.86
2019-04-28T03:10:24.077Z,1007.88
2019-04-28T03:11:24.065Z,1007.88
2019-04-28T03:12:24.057Z,1007.87
2019-04-28T03:13:24.043Z,1007.94
2019-04-28T03:14:24.032Z,1007.91
2019-04-28T03:15:24.020Z,1007.93
2019-04-28T03:16:24.022Z,1007.88
2019-04-28T03:17:24.003Z,1007.92
2019-04-28T03:18:23.988Z,1007.96
2019-04-28T03:19:23.976Z,1007.95
2019-04-28T03:20:23.967Z,1007.96
2019-04-28T03:21:23.950Z,1007.93
2019-04-28T03:22:23.944Z,1007.95
2019-04-28T03:23:23.930Z,1007.98
2019-04-28T03:24:23.920Z,1007.96
2019-04-28T03:25:23.910Z,1007.97
2019-04-28T03:26:23.898Z,1007.99
2019-04-28T03:27:23.898Z,1008.04
2019-04-28T03:28:23.883Z,1008.01
2019-04-28T03:29:23.865Z,1008.00
2019-04-28T03:30:23.854Z,1008.04
2019-04-28T03:31:53.505Z,1007.98
2019-04-28T03:32:43.042Z,1007.93
2019-04-28T03:33:26.157Z,1007.96
2019-04-28T03:34:23.921Z,1008.03
2019-04-28T03:35:23.795Z,1007.99
2019-04-28T03:36:24.049Z,1007.97
2019-04-28T03:37:24.322Z,1007.95
2019-04-28T03:38:23.766Z,1007.96
2019-04-28T03:39:23.763Z,1007.93
2019-04-28T03:40:23.744Z,1007.99
2019-04-28T03:41:23.735Z,1007.98
2019-04-28T03:42:23.723Z,1008.01
2019-04-28T03:43:23.716Z,1008.05
2019-04-28T03:44:23.696Z,1008.03
2019-04-28T03:45:23.687Z,1008.03
2019-04-28T03:46:23.672Z,1008.03
2019-04-28T03:47:23.679Z,1008.07
2019-04-28T03:48:23.660Z,1008.02
2019-04-28T03:49:23.649Z,1008.09
2019-04-28T03:50:23.644Z,1008.11
2019-04-28T03:51:23.631Z,1008.06
2019-04-28T03:52:23.610Z,1008.11
2019-04-28T03:53:23.598Z,1008.12
2019-04-28T03:54:23.588Z,1008.16
2019-04-28T03:55:23.584Z,1008.17
2019-04-28T03:56:23.613Z,1008.14
2019-04-28T03:57:23.590Z,1008.07
2019-04-28T03:58:24.264Z,1008.10
2019-04-28T03:59:23.536Z,1008.15
2019-04-28T04:00:23.575Z,1008.19
2019-04-28T04:01:23.514Z,1008.16
2019-04-28T04:02:24.020Z,1008.18
2019-04-28T04:03:23.495Z,1008.17
2019-04-28T04:04:23.482Z,1008.17
2019-04-28T04:05:23.465Z,1008.23
2019-04-28T04:06:23.499Z,1008.27
2019-04-28T04:07:23.440Z,1008.29
2019-04-28T04:08:23.490Z,1008.26
2019-04-28T04:09:24.262Z,1008.28
2019-04-28T04:10:23.422Z,1008.25
2019-04-28T04:11:23.403Z,1008.31
2019-04-28T04:12:23.430Z,1008.25
2019-04-28T04:13:23.380Z,1008.27
2019-04-28T04:14:23.368Z,1008.31
2019-04-28T04:15:23.384Z,1008.26
2019-04-28T04:16:23.347Z,1008.28
2019-04-28T04:17:23.350Z,1008.32
2019-04-28T04:18:23.328Z,1008.26
2019-04-28T04:19:23.319Z,1008.30
2019-04-28T04:20:23.824Z,1008.26
2019-04-28T04:21:23.297Z,1008.31
2019-04-28T04:22:23.283Z,1008.34
2019-04-28T04:23:23.596Z,1008.36
2019-04-28T04:24:23.255Z,1008.36
2019-04-28T04:25:23.242Z,1008.37
2019-04-28T04:26:23.243Z,1008.36
2019-04-28T04:27:23.226Z,1008.45
2019-04-28T04:28:23.218Z,1008.44
2019-04-28T04:29:23.205Z,1008.37
2019-04-28T04:30:23.190Z,1008.37
2019-04-28T04:31:23.178Z,1008.45
2019-04-28T04:32:26.959Z,1008.38
2019-04-28T04:33:23.157Z,1008.41
2019-04-28T04:34:23.153Z,1008.51
2019-04-28T04:35:23.133Z,1008.45
2019-04-28T04:36:23.121Z,1008.46
2019-04-28T04:37:23.121Z,1008.51
2019-04-28T04:38:23.115Z,1008.46
2019-04-28T04:39:23.092Z,1008.45
2019-04-28T04:40:23.084Z,1008.54
2019-04-28T04:41:23.089Z,1008.53
2019-04-28T04:42:23.057Z,1008.56
2019-04-28T04:43:23.363Z,1008.55
2019-04-28T04:44:23.038Z,1008.64
2019-04-28T04:45:23.024Z,1008.54
2019-04-28T04:46:23.113Z,1008.56
2019-04-28T04:47:23.000Z,1008.60
2019-04-28T04:48:22.991Z,1008.62
2019-04-28T04:49:22.981Z,1008.58
2019-04-28T04:50:22.973Z,1008.65
2019-04-28T04:51:22.961Z,1008.67
2019-04-28T04:52:22.947Z,1008.74
2019-04-28T04:53:22.934Z,1008.74
2019-04-28T04:54:22.937Z,1008.74
2019-04-28T04:55:22.916Z,1008.78
2019-04-28T04:56:22.904Z,1008.83
2019-04-28T04:57:22.906Z,1008.79
2019-04-28T04:58:22.890Z,1008.84
2019-04-28T04:59:22.869Z,1008.87
2019-04-28T05:00:22.860Z,1008.87
2019-04-28T05:01:22.847Z,1008.87
2019-04-28T05:02:29.586Z,1008.90
2019-04-28T05:03:23.821Z,1008.90
2019-04-28T05:04:22.820Z,1008.93
2019-04-28T05:05:22.802Z,1008.96
2019-04-28T05:06:22.811Z,1008.93
2019-04-28T05:07:22.785Z,1008.90
2019-04-28T05:08:22.764Z,1008.91
2019-04-28T05:09:22.759Z,1008.97
2019-04-28T05:10:22.746Z,1008.87
2019-04-28T05:11:22.801Z,1008.89
2019-04-28T05:12:22.728Z,1008.87
2019-04-28T05:13:22.714Z,1008.79
2019-04-28T05:14:22.705Z,1008.82
2019-04-28T05:15:22.691Z,1008.84
2019-04-28T05:16:22.677Z,1008.86
2019-04-28T05:17:22.676Z,1008.90
2019-04-28T05:18:22.661Z,1009.00
2019-04-28T05:19:22.652Z,1009.05
2019-04-28T05:20:22.644Z,1009.03
2019-04-28T05:21:22.628Z,1009.02
2019-04-28T05:22:22.608Z,1008.99
2019-04-28T05:23:22.602Z,1008.96
2019-04-28T05:24:22.593Z,1009.01
2019-04-28T05:25:24.491Z,1009.00
2019-04-28T05:26:23.568Z,1009.03
2019-04-28T05:27:25.607Z,1009.03
2019-04-28T05:28:22.550Z,1009.06
2019-04-28T05:29:26.795Z,1009.12
2019-04-28T05:30:23.527Z,1009.14
2019-04-28T05:31:24.282Z,1009.17
2019-04-28T05:32:22.502Z,1009.14
2019-04-28T05:33:23.664Z,1009.22
2019-04-28T05:34:24.356Z,1009.26
2019-04-28T05:35:25.087Z,1009.34
2019-04-28T05:36:22.474Z,1009.36
2019-04-28T05:37:22.447Z,1009.35
2019-04-28T05:38:22.446Z,1009.42
2019-04-28T05:39:22.427Z,1009.49
2019-04-28T05:40:22.416Z,1009.44
2019-04-28T05:41:22.400Z,1009.48
2019-04-28T05:42:22.395Z,1009.49
2019-04-28T05:43:22.373Z,1009.52
2019-04-28T05:44:22.363Z,1009.51
2019-04-28T05:45:22.365Z,1009.57
2019-04-28T05:46:22.343Z,1009.56
2019-04-28T05:47:22.331Z,1009.51
2019-04-28T05:48:22.324Z,1009.55
2019-04-28T05:49:22.321Z,1009.54
2019-04-28T05:50:22.302Z,1009.54
2019-04-28T05:51:22.292Z,1009.57
2019-04-28T05:52:22.282Z,1009.54
2019-04-28T05:53:22.269Z,1009.57
2019-04-28T05:54:22.258Z,1009.53
2019-04-28T05:55:22.246Z,1009.50
2019-04-28T05:56:22.236Z,1009.60
2019-04-28T05:57:22.229Z,1009.46
2019-04-28T05:58:22.218Z,1009.54
2019-04-28T05:59:22.209Z,1009.45
2019-04-28T06:00:22.209Z,1009.48
2019-04-28T06:01:22.183Z,1009.42
2019-04-28T06:02:22.178Z,1009.49
2019-04-28T06:03:22.309Z,1009.48
2019-04-28T06:04:22.141Z,1009.49
2019-04-28T06:05:22.133Z,1009.45
2019-04-28T06:06:22.134Z,1009.50
2019-04-28T06:07:22.112Z,1009.51
2019-04-28T06:08:22.129Z,1009.43
2019-04-28T06:09:22.116Z,1009.52
2019-04-28T06:10:22.148Z,1009.55
2019-04-28T06:11:22.086Z,1009.53
2019-04-28T06:12:22.062Z,1009.59
2019-04-28T06:13:22.078Z,1009.62
2019-04-28T06:14:22.095Z,1009.62
2019-04-28T06:15:22.305Z,1009.60
2019-04-28T06:16:22.263Z,1009.64
2019-04-28T06:17:22.025Z,1009.60
2019-04-28T06:18:22.117Z,1009.65
2019-04-28T06:19:22.021Z,1009.66
2019-04-28T06:20:22.775Z,1009.65
2019-04-28T06:21:22.121Z,1009.66
2019-04-28T06:22:22.039Z,1009.65
2019-04-28T06:23:22.052Z,1009.63
2019-04-28T06:24:21.965Z,1009.65
2019-04-28T06:25:22.092Z,1009.64
2019-04-28T06:26:22.258Z,1009.61
2019-04-28T06:27:21.905Z,1009.64
2019-04-28T06:28:21.909Z,1009.62
2019-04-28T06:29:21.881Z,1009.62
2019-04-28T06:30:21.865Z,1009.60
2019-04-28T06:31:21.855Z,1009.56
2019-04-28T06:32:21.838Z,1009.60
2019-04-28T06:33:21.831Z,1009.58
2019-04-28T06:34:21.814Z,1009.58
2019-04-28T06:35:21.801Z,1009.56
2019-04-28T06:36:21.795Z,1009.53
2019-04-28T06:37:21.781Z,1009.56
2019-04-28T06:38:21.771Z,1009.53
2019-04-28T06:39:21.755Z,1009.57
2019-04-28T06:40:21.743Z,1009.57
2019-04-28T06:41:21.740Z,1009.60
2019-04-28T06:42:21.720Z,1009.64
2019-04-28T06:43:21.706Z,1009.57
2019-04-28T06:44:21.701Z,1009.60
2019-04-28T06:45:21.688Z,1009.66
2019-04-28T06:46:21.673Z,1009.64
2019-04-28T06:47:21.667Z,1009.58
2019-04-28T06:48:21.652Z,1009.65
2019-04-28T06:49:21.676Z,1009.71
2019-04-28T06:50:21.695Z,1009.65
2019-04-28T06:51:21.635Z,1009.68
2019-04-28T06:52:21.675Z,1009.64
2019-04-28T06:53:21.616Z,1009.71
2019-04-28T06:54:21.600Z,1009.71
2019-04-28T06:55:21.612Z,1009.72
2019-04-28T06:56:21.597Z,1009.72
2019-04-28T06:57:21.563Z,1009.71
2019-04-28T06:58:21.587Z,1009.77
2019-04-28T06:59:21.548Z,1009.79
2019-04-28T07:00:21.534Z,1009.78
2019-04-28T07:01:21.521Z,1009.76
2019-04-28T07:02:21.506Z,1009.78
2019-04-28T07:03:23.307Z,1009.73
2019-04-28T07:04:21.493Z,1009.80
2019-04-28T07:05:21.491Z,1009.77
2019-04-28T07:06:21.459Z,1009.74
2019-04-28T07:07:21.455Z,1009.74
2019-04-28T07:08:21.438Z,1009.73
2019-04-28T07:09:21.505Z,1009.85
2019-04-28T07:10:21.425Z,1009.78
2019-04-28T07:11:21.415Z,1009.87
2019-04-28T07:12:21.394Z,1009.89
2019-04-28T07:13:21.387Z,1009.84
2019-04-28T07:14:21.375Z,1009.88
2019-04-28T07:15:21.361Z,1009.83
2019-04-28T07:16:21.388Z,1009.89
2019-04-28T07:17:21.356Z,1009.88
2019-04-28T07:18:21.324Z,1009.85
2019-04-28T07:19:21.319Z,1009.76
2019-04-28T07:20:21.312Z,1009.87
2019-04-28T07:21:21.299Z,1009.92
2019-04-28T07:22:21.334Z,1009.95
2019-04-28T07:23:21.271Z,1009.88
2019-04-28T07:24:21.260Z,1009.94
2019-04-28T07:25:21.256Z,1009.90
2019-04-28T07:26:21.243Z,1009.89
2019-04-28T07:27:21.229Z,1009.94
2019-04-28T07:28:21.217Z,1009.89
2019-04-28T07:29:21.211Z,1009.95
2019-04-28T07:30:21.194Z,1009.92
2019-04-28T07:31:21.191Z,1009.89
2019-04-28T07:32:21.173Z,1009.95
2019-04-28T07:33:21.195Z,1009.94
2019-04-28T07:34:21.164Z,1009.92
2019-04-28T07:35:21.150Z,1009.92
2019-04-28T07:36:21.136Z,1009.94
2019-04-28T07:37:21.122Z,1009.96
2019-04-28T07:38:21.127Z,1009.94
2019-04-28T07:39:21.113Z,1009.96
2019-04-28T07:40:21.087Z,1010.04
2019-04-28T07:41:21.083Z,1010.01
2019-04-28T07:42:21.070Z,1010.04
2019-04-28T07:43:21.082Z,1009.93
2019-04-28T07:44:21.057Z,1010.06
2019-04-28T07:45:21.043Z,1010.06
2019-04-28T07:46:21.034Z,1010.06
2019-04-28T07:47:21.005Z,1010.06
2019-04-28T07:48:20.999Z,1010.11
2019-04-28T07:49:20.986Z,1010.13
2019-04-28T07:50:20.984Z,1010.09
2019-04-28T07:51:20.986Z,1010.12
2019-04-28T07:52:20.963Z,1010.13
2019-04-28T07:53:20.948Z,1010.21
2019-04-28T07:54:20.951Z,1010.21
2019-04-28T07:55:20.918Z,1010.23
2019-04-28T07:56:20.920Z,1010.23
2019-04-28T07:57:20.903Z,1010.32
2019-04-28T07:58:20.883Z,1010.35
2019-04-28T07:59:20.885Z,1010.34
2019-04-28T08:00:20.863Z,1010.37
2019-04-28T08:01:20.861Z,1010.38
2019-04-28T08:02:20.871Z,1010.35
2019-04-28T08:03:20.839Z,1010.42
2019-04-28T08:04:20.823Z,1010.41
2019-04-28T08:05:20.809Z,1010.42
2019-04-28T08:06:20.801Z,1010.58
2019-04-28T08:07:20.802Z,1010.53
2019-04-28T08:08:20.809Z,1010.54
2019-04-28T08:09:20.775Z,1010.55
2019-04-28T08:10:20.754Z,1010.59
2019-04-28T08:11:20.756Z,1010.58
2019-04-28T08:12:20.734Z,1010.61
2019-04-28T08:13:20.741Z,1010.67
2019-04-28T08:14:20.709Z,1010.66
2019-04-28T08:15:20.703Z,1010.61
2019-04-28T08:16:20.705Z,1010.60
2019-04-28T08:17:20.719Z,1010.61
2019-04-28T08:18:20.679Z,1010.60
2019-04-28T08:19:20.688Z,1010.68
2019-04-28T08:20:20.644Z,1010.61
2019-04-28T08:21:20.641Z,1010.69
2019-04-28T08:22:20.616Z,1010.70
2019-04-28T08:23:20.611Z,1010.66
2019-04-28T08:24:20.604Z,1010.66
2019-04-28T08:25:20.588Z,1010.71
2019-04-28T08:26:20.574Z,1010.73
2019-04-28T08:27:20.568Z,1010.70
2019-04-28T08:28:20.558Z,1010.70
2019-04-28T08:29:20.539Z,1010.80
2019-04-28T08:30:20.556Z,1010.81
2019-04-28T08:31:20.529Z,1010.85
2019-04-28T08:32:20.509Z,1010.80
2019-04-28T08:33:20.504Z,1010.86
2019-04-28T08:34:20.492Z,1010.83
2019-04-28T08:35:20.485Z,1010.86
2019-04-28T08:36:20.476Z,1010.88
2019-04-28T08:37:20.451Z,1010.89
2019-04-28T08:38:20.452Z,1010.93
2019-04-28T08:39:23.421Z,1010.98
2019-04-28T08:40:20.422Z,1010.93
2019-04-28T08:41:20.411Z,1010.94
2019-04-28T08:42:20.429Z,1011.00
2019-04-28T08:43:20.411Z,1010.96
2019-04-28T08:44:20.372Z,1011.03
2019-04-28T08:45:20.375Z,1011.06
2019-04-28T08:46:20.355Z,1011.10
2019-04-28T08:47:20.384Z,1011.03
2019-04-28T08:48:20.363Z,1011.10
2019-04-28T08:49:20.382Z,1011.12
2019-04-28T08:50:20.322Z,1011.15
2019-04-28T08:51:20.350Z,1011.19
2019-04-28T08:52:20.311Z,1011.22
2019-04-28T08:53:20.286Z,1011.16
2019-04-28T08:54:20.268Z,1011.17
2019-04-28T08:55:20.264Z,1011.22
2019-04-28T08:56:20.248Z,1011.28
2019-04-28T08:57:20.239Z,1011.24
2019-04-28T08:58:20.235Z,1011.25
2019-04-28T08:59:20.216Z,1011.26
2019-04-28T09:00:20.205Z,1011.33
2019-04-28T09:01:20.205Z,1011.27
2019-04-28T09:02:20.237Z,1011.41
2019-04-28T09:03:20.167Z,1011.31
2019-04-28T09:04:20.171Z,1011.42
2019-04-28T09:05:27.580Z,1011.35
2019-04-28T09:07:01.807Z,1011.33
2019-04-28T09:08:01.790Z,1011.32
2019-04-28T09:09:43.440Z,1011.36
2019-04-28T09:10:43.435Z,1011.36
2019-04-28T09:12:25.592Z,1011.32
2019-04-28T09:13:25.553Z,1011.29
2019-04-28T09:14:25.558Z,1011.32
2019-04-28T09:15:25.537Z,1011.32
2019-04-28T09:16:25.524Z,1011.29
2019-04-28T09:17:25.507Z,1011.32
2019-04-28T09:18:25.515Z,1011.35
2019-04-28T09:19:25.493Z,1011.34
2019-04-28T09:20:25.485Z,1011.38
2019-04-28T09:21:25.473Z,1011.30
2019-04-28T09:22:25.454Z,1011.41
2019-04-28T09:23:25.444Z,1011.34
2019-04-28T09:24:25.440Z,1011.32
2019-04-28T09:25:25.433Z,1011.43
2019-04-28T09:26:25.426Z,1011.46
2019-04-28T09:27:25.403Z,1011.38
2019-04-28T09:28:25.388Z,1011.34
2019-04-28T09:29:25.377Z,1011.31
2019-04-28T09:30:25.370Z,1011.36
2019-04-28T09:31:25.360Z,1011.45
2019-04-28T09:32:25.345Z,1011.43
2019-04-28T09:33:25.343Z,1011.39
2019-04-28T09:34:28.494Z,1011.45
2019-04-28T09:35:25.312Z,1011.43
2019-04-28T09:36:25.304Z,1011.46
2019-04-28T09:37:25.290Z,1011.43
2019-04-28T09:38:25.278Z,1011.42
2019-04-28T09:39:25.279Z,1011.39
2019-04-28T09:40:25.259Z,1011.46
2019-04-28T09:41:25.272Z,1011.58
2019-04-28T09:42:25.239Z,1011.50
2019-04-28T09:43:25.231Z,1011.48
2019-04-28T09:44:25.208Z,1011.45
2019-04-28T09:45:25.201Z,1011.49
2019-04-28T09:46:25.203Z,1011.46
2019-04-28T09:47:25.183Z,1011.48
2019-04-28T09:48:25.170Z,1011.52
2019-04-28T09:49:25.173Z,1011.56
2019-04-28T09:50:25.147Z,1011.54
2019-04-28T09:51:25.134Z,1011.56
2019-04-28T09:52:25.136Z,1011.55
2019-04-28T09:53:25.112Z,1011.57
2019-04-28T09:54:25.101Z,1011.59
2019-04-28T09:55:25.089Z,1011.57
2019-04-28T09:56:25.077Z,1011.62
2019-04-28T09:57:25.077Z,1011.55
2019-04-28T09:58:25.058Z,1011.62
2019-04-28T09:59:25.043Z,1011.62
2019-04-28T10:00:25.084Z,1011.63
2019-04-28T10:01:25.033Z,1011.68
2019-04-28T10:02:25.016Z,1011.68
2019-04-28T10:03:25.371Z,1011.65
2019-04-28T10:04:25.001Z,1011.64
2019-04-28T10:05:24.988Z,1011.71
2019-04-28T10:06:24.964Z,1011.63
2019-04-28T10:07:24.959Z,1011.73
2019-04-28T10:08:24.960Z,1011.72
2019-04-28T10:09:24.933Z,1011.71
2019-04-28T10:10:24.919Z,1011.77
2019-04-28T10:11:30.714Z,1011.77
2019-04-28T10:12:27.362Z,1011.78
2019-04-28T10:13:24.887Z,1011.74
2019-04-28T10:14:24.873Z,1011.75
2019-04-28T10:15:24.875Z,1011.74
2019-04-28T10:16:24.852Z,1011.74
2019-04-28T10:17:24.850Z,1011.76
2019-04-28T10:18:24.830Z,1011.72
2019-04-28T10:19:24.824Z,1011.72
2019-04-28T10:20:24.811Z,1011.78
2019-04-28T10:21:24.802Z,1011.72
2019-04-28T10:22:24.794Z,1011.83
2019-04-28T10:23:24.775Z,1011.81
2019-04-28T10:24:24.763Z,1011.79
2019-04-28T10:25:24.772Z,1011.80
2019-04-28T10:26:24.745Z,1011.76
2019-04-28T10:27:24.731Z,1011.75
2019-04-28T10:28:24.726Z,1011.76
2019-04-28T10:29:24.730Z,1011.73
2019-04-28T10:30:24.702Z,1011.66
2019-04-28T10:31:24.683Z,1011.73
2019-04-28T10:32:24.688Z,1011.77
2019-04-28T10:33:24.666Z,1011.80
2019-04-28T10:34:24.661Z,1011.81
2019-04-28T10:35:24.646Z,1011.76
2019-04-28T10:36:24.630Z,1011.76
2019-04-28T10:37:24.616Z,1011.90
2019-04-28T10:38:24.607Z,1011.80
2019-04-28T10:39:24.599Z,1011.76
2019-04-28T10:40:24.602Z,1011.80
2019-04-28T10:41:24.577Z,1011.75
2019-04-28T10:42:24.563Z,1011.79
2019-04-28T10:43:24.550Z,1011.79
2019-04-28T10:44:24.543Z,1011.73
2019-04-28T10:45:24.550Z,1011.81
2019-04-28T10:46:24.522Z,1011.73
2019-04-28T10:47:24.509Z,1011.86
2019-04-28T10:48:24.556Z,1011.78
2019-04-28T10:49:24.516Z,1011.80
2019-04-28T10:50:24.488Z,1011.83
2019-04-28T10:51:24.481Z,1011.78
2019-04-28T10:52:24.462Z,1011.79
2019-04-28T10:53:24.435Z,1011.81
2019-04-28T10:54:24.431Z,1011.80
2019-04-28T10:55:24.418Z,1011.77
2019-04-28T10:56:24.419Z,1011.71
2019-04-28T10:57:24.407Z,1011.81
2019-04-28T10:58:24.383Z,1011.79
2019-04-28T10:59:24.373Z,1011.75
2019-04-28T11:00:24.361Z,1011.76
2019-04-28T11:01:24.351Z,1011.77
2019-04-28T11:02:24.347Z,1011.76
2019-04-28T11:03:24.332Z,1011.81
2019-04-28T11:04:24.320Z,1011.90
2019-04-28T11:05:24.309Z,1011.86
2019-04-28T11:06:24.314Z,1011.86
2019-04-28T11:07:24.291Z,1011.82
2019-04-28T11:08:24.278Z,1011.79
2019-04-28T11:09:30.341Z,1011.79
2019-04-28T11:10:25.259Z,1011.79
2019-04-28T11:11:24.240Z,1011.82
2019-04-28T11:12:24.228Z,1011.84
2019-04-28T11:13:24.353Z,1011.76
2019-04-28T11:14:24.204Z,1011.85
2019-04-28T11:15:24.199Z,1011.81
2019-04-28T11:16:24.180Z,1011.85
2019-04-28T11:17:24.179Z,1011.84
2019-04-28T11:18:24.164Z,1011.84
2019-04-28T11:19:24.160Z,1011.87
2019-04-28T11:20:25.304Z,1011.90
2019-04-28T11:21:24.127Z,1011.84
2019-04-28T11:22:24.123Z,1011.85
2019-04-28T11:23:24.113Z,1011.89
2019-04-28T11:24:24.098Z,1011.86
2019-04-28T11:25:24.090Z,1011.93
2019-04-28T11:26:24.080Z,1011.90
2019-04-28T11:27:24.072Z,1011.85
2019-04-28T11:28:24.052Z,1011.96
2019-04-28T11:29:24.051Z,1011.94
2019-04-28T11:30:24.037Z,1011.96
2019-04-28T11:31:24.037Z,1011.95
2019-04-28T11:32:24.004Z,1011.93
2019-04-28T11:33:23.995Z,1011.98
2019-04-28T11:34:23.984Z,1011.93
2019-04-28T11:35:23.979Z,1011.92
2019-04-28T11:36:23.972Z,1011.99
2019-04-28T11:37:23.955Z,1011.98
2019-04-28T11:38:23.937Z,1011.95
2019-04-28T11:39:23.941Z,1011.96
2019-04-28T11:40:23.920Z,1012.03
2019-04-28T11:41:23.912Z,1012.01
2019-04-28T11:42:23.900Z,1012.00
2019-04-28T11:43:23.886Z,1011.94
2019-04-28T11:44:24.458Z,1012.03
2019-04-28T11:45:23.869Z,1011.96
2019-04-28T11:46:23.865Z,1012.02
2019-04-28T11:47:23.845Z,1012.00
2019-04-28T11:48:23.841Z,1012.01
2019-04-28T11:49:23.828Z,1012.00
2019-04-28T11:50:23.817Z,1011.99
2019-04-28T11:51:23.805Z,1012.00
2019-04-28T11:52:23.805Z,1012.01
2019-04-28T11:53:23.783Z,1011.99
2019-04-28T11:54:24.237Z,1011.96
2019-04-28T11:55:23.761Z,1011.98
2019-04-28T11:56:23.748Z,1011.99
2019-04-28T11:57:23.798Z,1011.99
2019-04-28T11:58:23.720Z,1012.01
2019-04-28T11:59:23.724Z,1011.96
2019-04-28T12:00:23.705Z,1011.99
2019-04-28T12:01:23.693Z,1012.01
2019-04-28T12:02:23.687Z,1011.99
2019-04-28T12:03:23.690Z,1012.07
2019-04-28T12:04:23.664Z,1012.06
2019-04-28T12:05:33.974Z,1012.04
2019-04-28T12:06:24.639Z,1012.04
2019-04-28T12:07:23.637Z,1012.01